Terminal Aerodrome Forecast
Issued by NWS Jackson, MS

Home | Current Version | Previous Version | Text Only | Print | Product List | Glossary On
Versions: 1 2 3 4 5 6 7 8 9 10 11 12 13 14 15
000
FTUS44 KMEG 280539
TAFTUP
TAF
KTUP 280539Z 2806/0106 04008KT P6SM SCT080 BKN200
     FM281600 14007KT P6SM BKN050
     FM010300 12006KT P6SM SCT015 OVC045=

USA.gov is the U.S. government's official web portal to all federal, state and local government web resources and services.